Xai-Xai, Mozambique
Current Conditions -  °F | °C
As of 6:00 AM on Tuesday 23 Dec 2014 (Local Time) from FAKN Reporting Station
Moderate Fog Moderate Fog  
Wind Chill: 66°   Ceiling: 2000
Heat Index: 66°   Visibility: 5mi
Dew Point: 61°   Wind: 1mph
Humidity: 83%   Direction: 30°NNE
Pressure: 30.09"   Gusts: NA
Location:  25.04°S, 33.64°E
Report Text: FAKN 230400Z 03001KT 8000 VCFG FEW010 OVC020 19/16 Q1019 NOSIG
Loading
Personal Weather Stations






























Interactive Weather Map New forecast layout! Learn more

10-Day Weather Forecast

Advertisements
Track Severe Weather on mobile